Latest Coastal Weather Observations for Brisbane Airport

IDQ60701

Issued at 9:32 am EST Thursday 30 June 2016 (issued every 10 minutes, with the page automatically refreshed every 10 minutes)

About coastal observations | Map of coastal stations | Coastal observations for QLD | Marine services | Other Formats
Station Details ID: 040842 Name: BRISBANE AERO Lat: -27.39 Lon: 153.13 Height: 4.51 m
Data from the previous 72 hours. | See also: Recent months at Brisbane Airport
Date/Time
EST
Temp
°C
Wind Pressure Rain since
9am
mm
Weather Cloud Vis
km
Sea
Height
m
Swell
Dir  Spd
kts
Gust
kts
hPa Trend Height
m
Period
s
Dir
30/09:00am 13.7 SSW 13 15 1024.3 F 0.0 Fine Mostly clear 25 - - - -
30/08:30am 12.0 SSW 10 14 1024.2 - 0.0 - Mostly clear 10 - - - -
30/08:00am 10.4 SSW 10 13 1024.1 - 0.0 - Mostly clear 10 - - - -
30/07:30am 9.2 SSW 9 11 1023.9 - 0.0 - Mostly clear 10 - - - -
30/07:00am 7.8 SSW 8 10 1023.6 - 0.0 - Mostly clear 10 - - - -
30/06:30am 7.8 SSW 8 9 1023.5 - 0.0 - Mostly clear 10 - - - -
30/06:00am 8.5 SSW 9 10 1023.3 F 0.0 Fine Mostly clear 20 - - - -
30/05:30am 8.6 SSW 8 10 1023.3 - 0.0 - Mostly clear 10 - - - -
30/05:00am 8.3 SSW 8 9 1023.2 - 0.0 - Mostly clear 10 - - - -
30/04:30am 8.6 SSW 8 10 1023.2 - 0.0 - Mostly clear 10 - - - -
30/04:00am 7.9 SW 7 8 1023.3 - 0.0 - Mostly clear 10 - - - -
30/03:30am 7.8 SW 6 7 1023.3 - 0.0 - Mostly clear 10 - - - -
30/03:00am 8.3 SW 6 7 1023.4 F 0.0 Fine Mostly clear 25 - - - -
30/02:30am 8.5 SSW 6 7 1023.7 - 0.0 - - 10 - - - -
30/02:00am 9.1 SSW 7 8 1024.2 - 0.0 - - 10 - - - -
30/01:30am 8.9 SSW 5 6 1024.6 - 0.0 - - 10 - - - -
30/01:00am 9.2 SSW 5 6 1024.9 - 0.0 - - 10 - - - -
30/12:30am 9.0 SW 5 5 1024.8 - 0.0 - - 10 - - - -
30/12:00am 8.6 SW 6 6 1024.8 F 0.0 Fine Mostly clear 20 - - - -
 
Date/Time
EST
Temp
°C
Wind Pressure Rain since
9am
mm
Weather Cloud Vis
km
Sea
Height
m
Swell
Dir  Spd
kts
Gust
kts
hPa Trend Height
m
Period
s
Dir
29/11:30pm 10.3 SW 5 6 1025.0 - 0.0 - - 10 - - - -
29/11:00pm 10.5 W 4 5 1025.2 - 0.0 - - 10 - - - -
29/10:30pm 11.2 WSW 5 5 1025.4 - 0.0 - - 10 - - - -
29/10:00pm 11.9 SSW 4 5 1025.4 - 0.0 - - 10 - - - -
29/09:30pm 12.5 SSW 4 5 1025.3 - 0.0 - - 10 - - - -
29/09:00pm 13.1 SSW 4 5 1025.3 F 0.0 Fine Mostly clear 20 - - - -
29/08:30pm 12.4 S 4 5 1025.4 - 0.0 - - 10 - - - -
29/08:00pm 14.4 SSE 4 5 1025.5 - 0.0 - - 10 - - - -
29/07:30pm 14.2 SSE 4 5 1025.5 - 0.0 - - 10 - - - -
29/07:00pm 14.5 SSE 4 5 1025.5 - 0.0 - - 10 - - - -
29/06:30pm 14.2 SSE 4 5 1025.3 - 0.0 - - 10 - - - -
29/06:00pm 15.0 SE 3 4 1025.0 S 0.0 Fine Mostly clear 25 - - - -
29/05:30pm 16.3 E 4 5 1024.6 - 0.0 - - 10 - - - -
29/05:00pm 17.3 NE 1 3 1024.4 - 0.0 - - 10 - - - -
29/04:30pm 18.1 ENE 4 6 1024.2 - 0.0 - Mostly clear 10 - - - -
29/04:00pm 18.6 E 6 9 1024.1 - 0.0 - Mostly clear 10 - - - -
29/03:30pm 19.2 E 5 7 1023.9 - 0.0 - - 10 - - - -
29/03:00pm 19.2 E 6 8 1023.7 R 0.0 Fine Mostly clear 30 - - - -
29/02:30pm 20.2 SE 6 10 1023.4 - 0.0 - - 10 - - - -
29/02:00pm 20.1 SSW 8 11 1023.6 - 0.0 - - 10 - - - -
29/01:30pm 19.8 S 9 15 1023.7 - 0.0 - - 10 - - - -
29/01:00pm 19.3 S 7 10 1024.0 - 0.0 - - 10 - - - -
29/12:30pm 19.3 SSW 8 11 1024.4 - 0.0 - - 10 - - - -
29/12:00pm 19.1 SSW 9 11 1024.9 R 0.0 Fine Mostly clear 30 - - - -
29/11:30am 18.8 SSW 11 15 1025.4 - 0.0 - - 10 - - - -
29/11:00am 17.7 SSW 11 14 1025.9 - 0.0 - - 10 - - - -
29/10:30am 17.0 SSW 13 16 1026.3 - 0.0 - - 10 - - - -
29/10:00am 15.8 SSW 14 18 1026.4 - 0.0 - - 10 - - - -
29/09:30am 15.4 SW 14 17 1026.5 - 0.0 - - 10 - - - -
29/09:00am 13.9 SSW 11 15 1026.2 F 0.0 Fine Clear 30 - - - -
29/08:30am 12.9 SSW 10 13 1026.1 - 0.0 - - 10 - - - -
29/08:00am 11.3 SSW 9 10 1025.8 - 0.0 - - 10 - - - -
29/07:30am 10.2 SSW 8 10 1025.5 - 0.0 - - 10 - - - -
29/07:00am 9.2 SSW 8 10 1025.4 - 0.0 - - 10 - - - -
29/06:30am 8.7 SSW 8 10 1025.2 - 0.0 - - 10 - - - -
29/06:00am 8.1 SSW 8 10 1025.0 R 0.0 Fine Clear 30 - - - -
29/05:30am 8.3 SSW 9 11 1024.7 - 0.0 - - 10 - - - -
29/05:00am 8.6 SSW 9 11 1024.5 - 0.0 - - 10 - - - -
29/04:30am 8.2 SSW 8 10 1024.2 - 0.0 - - 10 - - - -
29/04:00am 8.2 SSW 8 10 1024.1 - 0.0 - - 10 - - - -
29/03:30am 9.3 SSW 7 9 1023.9 - 0.0 - - 10 - - - -
29/03:00am 9.3 SSW 7 8 1023.8 F 0.0 Fine Clear 30 - - - -
29/02:30am 9.5 SSW 8 9 1023.8 - 0.0 - - 10 - - - -
29/02:00am 10.1 SSW 6 7 1024.2 - 0.0 - - 10 - - - -
29/01:30am 8.0 SW 8 9 1024.3 - 0.0 - - 10 - - - -
29/01:00am 8.2 WSW 6 7 1024.4 - 0.0 - - 10 - - - -
29/12:30am 9.3 SW 5 6 1024.3 - 0.0 - - 10 - - - -
29/12:00am 10.3 WSW 7 9 1024.5 R 0.0 Fine Clear 30 - - - -
 
Date/Time
EST
Temp
°C
Wind Pressure Rain since
9am
mm
Weather Cloud Vis
km
Sea
Height
m
Swell
Dir  Spd
kts
Gust
kts
hPa Trend Height
m
Period
s
Dir
28/11:30pm 10.7 WSW 8 14 1024.4 - 0.0 - - 10 - - - -
28/11:00pm 11.3 WSW 9 15 1024.3 - 0.0 - - 10 - - - -
28/10:30pm 10.8 WSW 8 10 1024.2 - 0.0 - - 10 - - - -
28/10:00pm 11.5 SW 10 13 1024.0 - 0.0 - - 10 - - - -
28/09:30pm 12.5 SW 10 14 1023.8 - 0.0 - - 10 - - - -
28/09:00pm 11.6 SW 9 12 1023.9 R 0.0 Fine Clear 30 - - - -
28/08:30pm 12.3 SW 9 12 1023.9 - 0.0 - - 10 - - - -
28/08:00pm 11.2 WSW 9 14 1023.6 - 0.0 - - 10 - - - -
28/07:30pm 12.6 WSW 10 13 1023.4 - 0.0 - - 10 - - - -
28/07:00pm 13.2 WSW 8 10 1023.1 - 0.0 - - 10 - - - -
28/06:30pm 12.8 WSW 5 7 1022.6 - 0.0 - - 10 - - - -
28/06:00pm 13.7 WSW 6 8 1022.1 R 0.0 Fine Clear 40 - - - -
28/05:30pm 14.5 WNW 5 8 1021.6 - 0.0 - - 10 - - - -
28/05:00pm 15.5 W 6 8 1021.1 - 0.0 - - 10 - - - -
28/04:30pm 16.8 W 9 13 1020.8 - 0.0 - Mostly clear 10 - - - -
28/04:00pm 17.5 WSW 9 14 1020.4 - 0.0 - Mostly clear 10 - - - -
28/03:30pm 17.7 W 11 16 1020.1 - 0.0 - Mostly clear 10 - - - -
28/03:00pm 17.9 WSW 12 17 1019.9 R 0.0 Fine Mostly clear 40 - - - -
28/02:30pm 17.5 WSW 15 19 1019.6 - 0.0 - Mostly clear 10 - - - -
28/02:00pm 17.6 WSW 13 19 1019.5 - 0.0 - - 10 - - - -
28/01:30pm 17.2 WSW 14 19 1019.8 - 0.0 - - 10 - - - -
28/01:00pm 16.5 WSW 14 18 1019.8 - 0.0 - - 10 - - - -
28/12:30pm 16.3 SW 15 19 1019.9 - 0.0 - - 10 - - - -
28/12:00pm 15.8 WSW 15 19 1020.4 R 0.0 Fine Clear 40 - - - -
28/11:30am 15.0 WSW 17 20 1020.5 - 0.0 - Mostly clear 10 - - - -
28/11:00am 14.8 WSW 15 19 1020.9 - 0.0 - Mostly clear 10 - - - -
28/10:30am 13.5 WSW 14 20 1021.2 - 0.0 - Mostly clear 10 - - - -
28/10:00am 13.1 WSW 16 21 1021.3 - 0.0 - Mostly clear 10 - - - -
28/09:30am 11.9 SW 18 23 1021.3 - 0.0 - Mostly clear 10 - - - -
28/09:00am 11.4 WSW 15 20 1021.2 R 0.4 Fine Mostly clear 40 - - - -
28/08:30am 10.7 WSW 17 21 1021.2 - 0.4 - Mostly clear 10 - - - -
28/08:00am 9.9 WSW 17 21 1020.9 - 0.4 - Mostly clear 10 - - - -
28/07:36am 9.3 WSW 16 26 1020.9 - 0.4 - Mostly clear 10 - - - -
28/07:30am 9.2 WSW 18 26 1020.8 - 0.4 - Mostly clear 10 - - - -
28/07:00am 8.6 WSW 15 21 1020.6 - 0.4 - Mostly clear 10 - - - -
28/06:30am 8.5 SW 14 19 1020.2 - 0.4 - Mostly clear 10 - - - -
28/06:00am 8.5 WSW 15 20 1019.6 R 0.4 Fine Clear 40 - - - -
28/05:30am 8.7 WSW 19 24 1019.0 - 0.4 - Mostly clear 10 - - - -
28/05:00am 8.7 WSW 16 19 1018.9 - 0.4 - - 10 - - - -
28/04:30am 8.8 WSW 19 25 1018.6 - 0.4 - - 10 - - - -
28/04:06am 8.8 WSW 21 31 1018.2 - 0.4 - - 10 - - - -
28/04:00am 8.9 WSW 22 31 1018.2 - 0.4 - - 10 - - - -
28/03:32am 9.1 WSW 21 31 1018.1 - 0.4 - - 10 - - - -
28/03:30am 8.9 WSW 20 27 1018.0 - 0.4 - - 10 - - - -
28/03:00am 9.0 WSW 21 27 1018.2 R 0.4 Fine Clear 40 - - - -
28/02:30am 9.1 WSW 19 26 1018.1 - 0.4 - - 10 - - - -
28/02:00am 9.1 WSW 18 26 1018.3 - 0.4 - - 10 - - - -
28/01:30am 9.2 WSW 16 22 1018.5 - 0.4 - - 10 - - - -
28/01:00am 9.2 WSW 16 20 1018.6 - 0.4 - - 10 - - - -
28/12:30am 9.7 WSW 16 21 1018.6 - 0.4 - - 10 - - - -
28/12:00am 10.0 WSW 17 24 1018.7 R 0.4 Fine Clear 40 - - - -
 
Date/Time
EST
Temp
°C
Wind Pressure Rain since
9am
mm
Weather Cloud Vis
km
Sea
Height
m
Swell
Dir  Spd
kts
Gust
kts
hPa Trend Height
m
Period
s
Dir
27/11:30pm 10.1 WSW 16 21 1018.9 - 0.4 - Mostly clear 10 - - - -
27/11:00pm 10.4 WSW 14 19 1018.9 - 0.4 - Mostly clear 10 - - - -
27/10:30pm 10.6 WSW 19 22 1018.8 - 0.4 - Mostly clear 10 - - - -
27/10:00pm 11.1 WSW 18 22 1018.8 - 0.4 - Mostly clear 10 - - - -
27/09:30pm 10.8 WSW 16 21 1018.8 - 0.4 - Mostly clear 10 - - - -
27/09:00pm 11.3 WSW 19 23 1018.4 R 0.4 Fine Mostly clear 40 - - - -
27/08:30pm 11.4 SW 18 24 1018.2 - 0.4 - Mostly clear 10 - - - -
27/08:00pm 11.7 WSW 15 20 1017.9 - 0.4 - Mostly clear 10 - - - -
27/07:31pm 12.1 WSW 16 26 1017.8 - 0.4 - Mostly clear 10 - - - -
27/07:30pm 12.1 WSW 17 26 1017.8 - 0.4 - Mostly clear 10 - - - -
27/07:02pm 12.3 WSW 16 26 1017.3 - 0.4 - Mostly clear 10 - - - -
27/07:00pm 12.5 WSW 15 20 1017.2 - 0.4 - Mostly clear 10 - - - -
27/06:30pm 12.4 WSW 13 17 1017.1 - 0.4 - Mostly clear 10 - - - -
27/06:00pm 12.8 WSW 13 25 1016.9 R 0.4 Fine Mostly clear 40 - - - -
27/05:30pm 13.3 WSW 18 30 1016.4 - 0.4 - Mostly clear 10 - - - -
27/05:22pm 13.5 WSW 18 30 1016.3 - 0.4 - Mostly clear 10 - - - -
27/05:00pm 14.1 WSW 16 23 1016.0 - 0.4 - Mostly clear 10 - - - -
27/04:30pm 15.1 WSW 11 17 1015.6 - 0.4 - Mostly clear 10 - - - -
27/04:00pm 16.0 WSW 18 22 1014.9 - 0.4 - Mostly clear 10 - - - -
27/03:30pm 16.1 W 15 20 1014.5 - 0.4 - Mostly clear 10 - - - -
27/03:00pm 16.9 W 17 21 1014.5 R 0.4 Fine Mostly clear 40 - - - -
27/02:30pm 17.5 W 19 23 1014.2 - 0.4 - Mostly clear 10 - - - -
27/02:00pm 16.9 W 19 24 1014.2 - 0.4 - Mostly clear 10 - - - -
27/01:30pm 17.5 W 17 22 1014.3 - 0.4 - Mostly clear 10 - - - -
27/01:00pm 15.5 WSW 9 16 1014.6 - 0.4 - Mostly clear 10 - - - -
27/12:30pm 16.2 W 10 17 1015.0 - 0.0 Rain Mostly clear 10 - - - -
27/12:00pm 16.1 WSW 13 16 1015.4 F 0.0 Rain Mostly cloudy 20 - - - -
27/11:30am 16.8 WNW 7 11 1015.8 - 0.0 Rain Mostly clear 10 - - - -
27/11:00am 17.2 W 9 14 1016.0 - 0.0 - Mostly clear 10 - - - -
27/10:30am 16.4 NW 3 7 1016.6 - 0.0 - Mostly clear 10 - - - -
27/10:00am 15.9 NW 7 13 1017.0 - 0.0 - Mostly clear 10 - - - -

Other Formats:

Comma delimited format used in spreadsheet applications
http://www.bom.gov.au/fwo/IDQ60701/IDQ60701.94578.axf

JavaScript Object Notation format (JSON) in row-major order
http://www.bom.gov.au/fwo/IDQ60701/IDQ60701.94578.json